createdAt,value
2023-05-13T00:04:52.353Z,11.10
2023-05-13T00:10:54.523Z,11.10
2023-05-13T00:16:58.965Z,11.00
2023-05-13T00:23:03.531Z,10.90
2023-05-13T00:29:05.934Z,10.80
2023-05-13T00:35:08.596Z,10.80
2023-05-13T00:41:10.864Z,10.80
2023-05-13T00:47:13.216Z,10.80
2023-05-13T00:53:17.314Z,10.70
2023-05-13T00:59:19.765Z,10.70
2023-05-13T01:05:43.306Z,10.60
2023-05-13T01:11:46.486Z,10.50
2023-05-13T01:18:02.989Z,10.40
2023-05-13T01:24:06.244Z,10.30
2023-05-13T01:30:10.336Z,10.30
2023-05-13T01:36:14.197Z,10.20
2023-05-13T01:42:19.770Z,10.10
2023-05-13T01:48:22.226Z,9.90
2023-05-13T01:54:26.054Z,9.80
2023-05-13T02:00:33.877Z,9.70
2023-05-13T02:06:36.592Z,9.60
2023-05-13T02:12:39.144Z,9.50
2023-05-13T02:18:41.519Z,9.40
2023-05-13T02:24:43.911Z,9.40
2023-05-13T02:30:46.596Z,9.30
2023-05-13T02:36:49.483Z,9.30
2023-05-13T02:42:51.791Z,9.20
2023-05-13T02:49:00.873Z,9.20
2023-05-13T02:55:09.857Z,9.20
2023-05-13T03:01:13.065Z,9.20
2023-05-13T03:07:15.401Z,9.20
2023-05-13T03:13:17.625Z,9.20
2023-05-13T03:19:20.096Z,9.30
2023-05-13T03:25:22.718Z,9.40
2023-05-13T03:31:30.174Z,9.60
2023-05-13T03:37:35.131Z,9.90
2023-05-13T03:43:37.427Z,10.20
2023-05-13T03:49:44.585Z,10.50
2023-05-13T03:55:46.836Z,10.80
2023-05-13T04:01:49.234Z,11.10
2023-05-13T04:07:51.552Z,11.50
2023-05-13T04:13:53.698Z,11.90
2023-05-13T04:19:56.331Z,11.90
2023-05-13T04:25:58.619Z,11.90
2023-05-13T04:32:01.343Z,12.10
2023-05-13T04:38:05.298Z,12.50
2023-05-13T04:44:07.912Z,12.90
2023-05-13T04:50:10.733Z,13.10
2023-05-13T04:56:13.843Z,13.50
2023-05-13T05:02:16.220Z,14.30
2023-05-13T05:08:18.653Z,15.20
2023-05-13T05:14:22.881Z,15.20
2023-05-13T05:20:26.694Z,15.60
2023-05-13T05:26:32.410Z,16.10
2023-05-13T05:32:35.104Z,16.20
2023-05-13T05:38:38.834Z,16.80
2023-05-13T05:44:42.232Z,17.50
2023-05-13T05:50:44.756Z,18.30
2023-05-13T05:56:51.536Z,19.00
2023-05-13T06:02:53.833Z,19.60
2023-05-13T06:08:56.264Z,21.90
2023-05-13T06:14:59.294Z,19.40
2023-05-13T06:21:01.641Z,19.00
2023-05-13T06:27:03.866Z,18.90
2023-05-13T06:33:06.608Z,18.60
2023-05-13T06:39:09.173Z,18.30
2023-05-13T06:45:12.285Z,17.90
2023-05-13T06:51:14.700Z,17.80
2023-05-13T06:57:17.188Z,18.20
2023-05-13T07:03:23.321Z,18.20
2023-05-13T07:09:25.725Z,18.60
2023-05-13T07:15:28.130Z,19.00
2023-05-13T07:21:30.424Z,19.40
2023-05-13T07:27:32.755Z,19.70
2023-05-13T07:33:37.082Z,24.10
2023-05-13T07:39:39.253Z,26.60
2023-05-13T07:45:42.570Z,26.10
2023-05-13T07:51:44.914Z,25.30
2023-05-13T07:57:47.245Z,25.80
2023-05-13T08:03:49.755Z,24.70
2023-05-13T08:09:52.017Z,24.40
2023-05-13T08:15:54.394Z,24.60
2023-05-13T08:21:56.806Z,23.80
2023-05-13T08:27:59.213Z,22.90
2023-05-13T08:34:01.582Z,21.20
2023-05-13T08:40:05.244Z,20.00
2023-05-13T08:46:10.369Z,19.10
2023-05-13T08:52:12.701Z,18.40
2023-05-13T08:58:14.866Z,18.50
2023-05-13T09:04:19.048Z,18.10
2023-05-13T09:10:21.598Z,17.90
2023-05-13T09:16:24.065Z,17.60
2023-05-13T09:22:26.589Z,17.60
2023-05-13T09:28:28.894Z,17.60
2023-05-13T09:34:35.555Z,17.50
2023-05-13T09:40:38.847Z,17.40
2023-05-13T09:46:43.222Z,17.60
2023-05-13T09:52:46.216Z,18.00
2023-05-13T09:58:54.564Z,18.40
2023-05-13T10:04:57.373Z,18.90
2023-05-13T10:11:00.226Z,19.80
2023-05-13T10:17:03.184Z,19.70
2023-05-13T10:23:05.759Z,19.20
2023-05-13T10:29:10.735Z,18.80
2023-05-13T10:35:18.016Z,19.10
2023-05-13T10:41:41.864Z,20.60
2023-05-13T10:47:44.113Z,22.80
2023-05-13T10:53:49.238Z,23.70
2023-05-13T11:00:16.991Z,24.80
2023-05-13T11:06:21.687Z,24.10
2023-05-13T11:12:24.191Z,22.90
2023-05-13T11:18:35.221Z,22.80
2023-05-13T11:24:37.691Z,22.50
2023-05-13T11:30:40.143Z,22.90
2023-05-13T11:36:45.261Z,22.40
2023-05-13T11:42:48.396Z,21.80
2023-05-13T11:48:50.670Z,21.70
2023-05-13T11:54:57.005Z,21.40
2023-05-13T12:01:00.443Z,21.30
2023-05-13T12:07:03.046Z,21.50
2023-05-13T12:13:05.182Z,21.90
2023-05-13T12:19:07.572Z,21.80
2023-05-13T12:25:31.787Z,21.10
2023-05-13T12:31:35.307Z,21.60
2023-05-13T12:37:37.519Z,23.50
2023-05-13T12:43:41.299Z,24.50
2023-05-13T12:49:57.115Z,23.20
2023-05-13T12:55:59.224Z,22.30
2023-05-13T13:02:01.369Z,21.40
2023-05-13T13:08:05.572Z,21.30
2023-05-13T13:14:08.716Z,21.40
2023-05-13T13:20:11.458Z,21.80
2023-05-13T13:26:13.656Z,21.70
2023-05-13T13:32:16.059Z,21.70
2023-05-13T13:38:18.223Z,21.10
2023-05-13T13:44:20.388Z,20.70
2023-05-13T13:50:23.028Z,20.10
2023-05-13T13:56:25.896Z,19.80
2023-05-13T14:02:28.211Z,19.60
2023-05-13T14:08:30.614Z,19.80
2023-05-13T14:14:32.670Z,20.10
2023-05-13T14:20:36.103Z,20.10
2023-05-13T14:26:38.738Z,20.00
2023-05-13T14:32:45.371Z,20.00
2023-05-13T14:38:47.601Z,19.80
2023-05-13T14:44:49.981Z,19.40
2023-05-13T14:50:52.251Z,19.50
2023-05-13T14:56:54.391Z,19.30
2023-05-13T15:02:56.746Z,19.30
2023-05-13T15:08:59.080Z,19.30
2023-05-13T15:15:01.519Z,19.30
2023-05-13T15:21:03.730Z,19.10
2023-05-13T15:27:06.847Z,19.10
2023-05-13T15:33:09.337Z,19.00
2023-05-13T15:39:11.755Z,19.00
2023-05-13T15:45:14.121Z,18.90
2023-05-13T15:51:16.394Z,18.90
2023-05-13T15:57:19.456Z,18.80
2023-05-13T16:03:21.524Z,18.80
2023-05-13T16:09:23.708Z,18.50
2023-05-13T16:15:25.974Z,18.50
2023-05-13T16:21:28.004Z,18.30
2023-05-13T16:27:30.722Z,18.20
2023-05-13T16:33:34.073Z,18.10
2023-05-13T16:39:36.945Z,18.00
2023-05-13T16:45:39.715Z,17.90
2023-05-13T16:51:43.178Z,17.70
2023-05-13T16:57:45.619Z,17.50
2023-05-13T17:03:47.802Z,17.40
2023-05-13T17:09:50.242Z,17.30
2023-05-13T17:15:52.833Z,17.10
2023-05-13T17:21:54.849Z,16.90
2023-05-13T17:27:57.060Z,16.70
2023-05-13T17:33:59.540Z,16.50
2023-05-13T17:40:03.113Z,16.30
2023-05-13T17:46:05.580Z,16.20
2023-05-13T17:52:07.821Z,16.00
2023-05-13T17:58:10.230Z,15.80
2023-05-13T18:04:12.330Z,15.80
2023-05-13T18:10:14.528Z,15.70
2023-05-13T18:16:19.596Z,15.50
2023-05-13T18:22:22.097Z,15.40
2023-05-13T18:28:24.355Z,15.20
2023-05-13T18:34:26.913Z,15.10
2023-05-13T18:40:29.420Z,15.00
2023-05-13T18:46:31.630Z,14.90
2023-05-13T18:52:33.900Z,14.80
2023-05-13T18:58:36.206Z,14.70
2023-05-13T19:04:38.722Z,14.60
2023-05-13T19:10:41.315Z,14.50
2023-05-13T19:16:43.600Z,14.40
2023-05-13T19:22:45.975Z,14.40
2023-05-13T19:28:48.375Z,14.30
2023-05-13T19:34:50.912Z,14.20
2023-05-13T19:40:53.679Z,14.00
2023-05-13T19:46:56.867Z,13.90
2023-05-13T19:52:59.200Z,13.80
2023-05-13T19:59:01.426Z,13.60
2023-05-13T20:05:03.889Z,13.60
2023-05-13T20:11:06.222Z,13.60
2023-05-13T20:17:08.796Z,13.60
2023-05-13T20:23:13.116Z,13.50
2023-05-13T20:29:16.768Z,13.30
2023-05-13T20:35:19.192Z,13.20
2023-05-13T20:41:22.179Z,13.10
2023-05-13T20:47:24.379Z,13.00
2023-05-13T20:53:26.689Z,12.90
2023-05-13T20:59:28.715Z,12.80
2023-05-13T21:05:31.450Z,12.80
2023-05-13T21:11:33.629Z,12.70
2023-05-13T21:17:35.818Z,12.50
2023-05-13T21:23:43.460Z,12.40
2023-05-13T21:29:45.712Z,12.50
2023-05-13T21:35:47.968Z,12.50
2023-05-13T21:41:50.376Z,12.50
2023-05-13T21:47:52.743Z,12.40
2023-05-13T21:53:55.130Z,12.40
2023-05-13T21:59:57.352Z,12.40
2023-05-13T22:05:59.720Z,12.30
2023-05-13T22:12:02.314Z,12.20
2023-05-13T22:18:05.051Z,12.20
2023-05-13T22:24:08.551Z,12.20
2023-05-13T22:30:11.095Z,12.20
2023-05-13T22:36:13.980Z,12.20
2023-05-13T22:42:18.896Z,12.30
2023-05-13T22:48:21.515Z,12.30
2023-05-13T22:54:24.316Z,12.30
2023-05-13T23:00:26.561Z,12.20
2023-05-13T23:06:28.777Z,12.10
2023-05-13T23:12:31.186Z,12.10
2023-05-13T23:18:34.522Z,12.10
2023-05-13T23:24:37.085Z,12.00
2023-05-13T23:30:39.840Z,11.90
2023-05-13T23:36:42.127Z,11.80
2023-05-13T23:42:44.553Z,11.80
2023-05-13T23:48:46.772Z,11.80
2023-05-13T23:54:49.119Z,11.80
